Time;durP1;ratioP1;P1;durP2;ratioP2;P2;SDS_P1;SDS_P2;PMS_P1;PMS_P2;Temp;Humidity;BMP_temperature;BMP_pressure;BME280_temperature;BME280_humidity;BME280_pressure;Samples;Min_cycle;Max_cycle;Signal;HPM_P1;HPM_P2
2022/06/02 00:00:47;;;;;;;6.20;2.40;;;;;;;;;;6212673;23;20171;-89
2022/06/02 00:03:58;;;;;;;6.18;2.28;;;;;;;;;;6214675;23;20155;-91
2022/06/02 00:07:05;;;;;;;3.63;2.50;;;;;;;;;;6212597;23;20170;-93
2022/06/02 00:10:14;;;;;;;5.82;2.40;;;;;;;;;;6213195;23;20171;-91
2022/06/02 00:13:25;;;;;;;5.60;2.80;;;;;;;;;;6211829;23;20175;-92
2022/06/02 00:16:34;;;;;;;5.07;2.85;;;;;;;;;;6211749;23;20194;-92
2022/06/02 00:19:44;;;;;;;3.15;2.45;;;;;;;;;;6214243;23;20163;-92
2022/06/02 00:22:56;;;;;;;5.43;2.95;;;;;;;;;;6214181;23;20175;-93
2022/06/02 00:26:06;;;;;;;6.47;3.03;;;;;;;;;;6214182;23;20198;-92
2022/06/02 00:29:18;;;;;;;5.97;2.80;;;;;;;;;;6215035;23;20170;-91
2022/06/02 00:32:28;;;;;;;6.10;3.05;;;;;;;;;;6212579;23;20218;-92
2022/06/02 00:35:35;;;;;;;7.65;3.15;;;;;;;;;;6213867;23;20234;-91
2022/06/02 00:38:41;;;;;;;8.50;4.10;;;;;;;;;;6213485;23;20179;-92
2022/06/02 00:41:51;;;;;;;11.23;5.53;;;;;;;;;;6212884;23;20171;-91
2022/06/02 00:45:00;;;;;;;13.30;4.60;;;;;;;;;;6213844;23;20168;-92
2022/06/02 00:48:13;;;;;;;7.90;4.32;;;;;;;;;;6210906;23;20210;-93
2022/06/02 00:51:23;;;;;;;7.07;4.50;;;;;;;;;;6212687;23;20229;-91
2022/06/02 00:58:09;;;;;;;7.95;4.55;;;;;;;;;;6212893;23;20203;-92
2022/06/02 01:01:18;;;;;;;9.80;4.40;;;;;;;;;;6212506;23;20195;-92
2022/06/02 01:04:24;;;;;;;7.65;4.28;;;;;;;;;;6211553;23;20152;-92
2022/06/02 01:07:39;;;;;;;7.43;4.53;;;;;;;;;;6212443;23;20175;-92
2022/06/02 01:10:50;;;;;;;11.13;5.15;;;;;;;;;;6212636;23;20267;-90
2022/06/02 01:14:02;;;;;;;7.70;4.90;;;;;;;;;;6212391;23;20163;-92
2022/06/02 01:17:16;;;;;;;9.52;5.60;;;;;;;;;;6212803;23;20201;-91
2022/06/02 01:20:30;;;;;;;8.48;5.00;;;;;;;;;;6214198;23;20207;-91
2022/06/02 01:23:58;;;;;;;10.52;5.20;;;;;;;;;;6213889;23;20614;-92
2022/06/02 01:27:20;;;;;;;8.88;5.63;;;;;;;;;;6212841;23;20162;-93
2022/06/02 01:30:53;;;;;;;11.77;6.38;;;;;;;;;;6213241;23;20167;-92
2022/06/02 01:34:04;;;;;;;10.85;5.88;;;;;;;;;;6176810;23;20233;-92
2022/06/02 01:37:14;;;;;;;14.38;6.65;;;;;;;;;;6214369;23;20693;-92
2022/06/02 01:40:26;;;;;;;12.25;6.32;;;;;;;;;;6214167;23;20175;-92
2022/06/02 01:43:35;;;;;;;9.65;5.70;;;;;;;;;;6214118;23;20163;-92
2022/06/02 01:46:43;;;;;;;10.43;5.93;;;;;;;;;;6214572;23;20158;-92
2022/06/02 01:50:01;;;;;;;8.30;5.38;;;;;;;;;;6216639;23;20151;-90
2022/06/02 01:53:10;;;;;;;7.32;5.03;;;;;;;;;;6214596;23;20163;-89
2022/06/02 01:56:23;;;;;;;8.25;5.10;;;;;;;;;;6212924;23;20178;-92
2022/06/02 01:59:35;;;;;;;11.13;5.47;;;;;;;;;;6213049;23;20170;-90
2022/06/02 02:02:53;;;;;;;8.05;5.60;;;;;;;;;;6212671;23;20215;-93
2022/06/02 02:06:04;;;;;;;8.63;5.93;;;;;;;;;;6212473;23;20168;-92
2022/06/02 02:09:13;;;;;;;7.93;5.35;;;;;;;;;;6211446;23;20164;-92
2022/06/02 02:12:23;;;;;;;7.63;5.15;;;;;;;;;;6212177;23;20178;-92
2022/06/02 02:15:31;;;;;;;8.10;5.47;;;;;;;;;;6211493;23;20234;-93
2022/06/02 02:18:43;;;;;;;11.15;6.72;;;;;;;;;;6213447;23;20167;-90
2022/06/02 02:21:55;;;;;;;9.20;5.93;;;;;;;;;;6213808;23;20166;-91
2022/06/02 02:25:06;;;;;;;12.82;6.22;;;;;;;;;;6212308;23;20181;-92
2022/06/02 02:28:15;;;;;;;10.43;6.93;;;;;;;;;;6211834;23;20167;-92
2022/06/02 02:31:34;;;;;;;11.05;6.70;;;;;;;;;;6212316;23;20178;-91
2022/06/02 02:34:50;;;;;;;11.07;6.65;;;;;;;;;;6213080;23;20163;-93
2022/06/02 02:38:00;;;;;;;13.73;7.38;;;;;;;;;;6211363;23;20168;-92
2022/06/02 02:41:07;;;;;;;12.82;7.07;;;;;;;;;;6212233;23;20151;-92
2022/06/02 02:44:15;;;;;;;13.10;8.15;;;;;;;;;;6211058;23;20170;-92
2022/06/02 02:47:22;;;;;;;16.73;8.32;;;;;;;;;;6213539;23;20178;-92
2022/06/02 02:50:29;;;;;;;12.93;8.25;;;;;;;;;;6212820;23;20171;-93
2022/06/02 02:53:36;;;;;;;14.70;8.73;;;;;;;;;;6212866;23;20170;-89
2022/06/02 02:56:45;;;;;;;13.38;8.82;;;;;;;;;;6214594;23;20194;-93
2022/06/02 02:59:53;;;;;;;17.38;10.00;;;;;;;;;;6214309;23;20211;-93
2022/06/02 03:03:05;;;;;;;17.08;9.75;;;;;;;;;;6213643;23;20220;-91
2022/06/02 03:06:22;;;;;;;15.25;8.95;;;;;;;;;;6214481;23;20696;-93
2022/06/02 03:09:33;;;;;;;16.83;8.93;;;;;;;;;;6212972;23;20168;-92
2022/06/02 03:12:50;;;;;;;15.75;9.05;;;;;;;;;;6213336;23;20699;-91
2022/06/02 03:15:59;;;;;;;14.52;8.88;;;;;;;;;;6212624;23;20194;-92
2022/06/02 03:19:12;;;;;;;14.98;8.57;;;;;;;;;;6214474;23;20167;-92
2022/06/02 03:22:26;;;;;;;18.88;8.73;;;;;;;;;;6211972;23;20151;-92
2022/06/02 03:25:35;;;;;;;14.25;8.68;;;;;;;;;;6210819;23;20175;-92
2022/06/02 03:28:43;;;;;;;16.20;8.48;;;;;;;;;;6213399;23;20195;-92
2022/06/02 03:31:53;;;;;;;12.93;8.52;;;;;;;;;;6210159;23;20528;-92
2022/06/02 03:35:01;;;;;;;14.45;8.45;;;;;;;;;;6212212;23;20170;-91
2022/06/02 03:38:15;;;;;;;14.35;8.05;;;;;;;;;;6210444;23;20167;-92
2022/06/02 03:41:34;;;;;;;10.40;7.15;;;;;;;;;;6210398;23;20258;-92
2022/06/02 03:44:46;;;;;;;11.05;6.75;;;;;;;;;;6210992;23;20162;-91
2022/06/02 03:48:07;;;;;;;13.10;6.97;;;;;;;;;;6212961;23;20171;-92
2022/06/02 03:51:20;;;;;;;11.45;7.53;;;;;;;;;;6210681;23;20214;-92
2022/06/02 03:54:38;;;;;;;11.70;6.90;;;;;;;;;;6212387;23;20171;-91
2022/06/02 03:58:01;;;;;;;15.07;8.02;;;;;;;;;;6212428;23;20286;-91
2022/06/02 04:05:42;;;;;;;16.20;7.13;;;;;;;;;;6231148;23;20202;-91
2022/06/02 04:09:02;;;;;;;17.27;7.22;;;;;;;;;;6212742;23;20163;-90
2022/06/02 04:15:57;;;;;;;8.77;5.43;;;;;;;;;;6212714;23;20236;-91
2022/06/02 04:23:40;;;;;;;9.02;4.75;;;;;;;;;;6110199;23;20204;-93
2022/06/02 04:26:55;;;;;;;7.88;4.55;;;;;;;;;;6119460;23;20685;-94
2022/06/02 04:30:04;;;;;;;7.65;4.88;;;;;;;;;;6212251;23;20212;-92
2022/06/02 04:33:12;;;;;;;11.88;5.13;;;;;;;;;;6211969;23;20167;-92
2022/06/02 04:36:25;;;;;;;8.35;4.90;;;;;;;;;;6214589;23;20194;-92
2022/06/02 04:39:35;;;;;;;7.63;5.00;;;;;;;;;;6212974;23;20178;-91
2022/06/02 04:42:47;;;;;;;7.00;4.70;;;;;;;;;;6215395;23;20202;-91
2022/06/02 04:45:57;;;;;;;13.20;4.90;;;;;;;;;;6214751;23;20156;-94
2022/06/02 04:49:08;;;;;;;7.22;4.45;;;;;;;;;;6215906;23;20171;-91
2022/06/02 04:52:20;;;;;;;6.45;4.35;;;;;;;;;;6215030;23;20232;-92
2022/06/02 04:55:33;;;;;;;6.97;4.95;;;;;;;;;;6214942;23;20171;-91
2022/06/02 04:58:45;;;;;;;7.15;5.07;;;;;;;;;;6214967;23;20170;-93
2022/06/02 05:01:58;;;;;;;9.73;5.30;;;;;;;;;;6212097;23;20190;-92
2022/06/02 05:09:27;;;;;;;8.45;4.45;;;;;;;;;;6231871;23;20155;-90
2022/06/02 05:12:38;;;;;;;10.60;4.70;;;;;;;;;;6214510;23;20155;-91
2022/06/02 05:15:49;;;;;;;9.63;4.80;;;;;;;;;;6215591;23;20163;-91
2022/06/02 05:19:13;;;;;;;6.45;4.47;;;;;;;;;;6216623;23;20167;-92
2022/06/02 05:22:43;;;;;;;8.38;4.15;;;;;;;;;;6212347;23;20611;-91
2022/06/02 05:26:01;;;;;;;6.72;4.07;;;;;;;;;;6214109;23;20417;-92
2022/06/02 05:29:13;;;;;;;7.38;4.22;;;;;;;;;;6212459;23;20170;-90
2022/06/02 05:32:37;;;;;;;6.45;4.45;;;;;;;;;;6212188;23;20168;-91
2022/06/02 05:35:52;;;;;;;9.32;5.15;;;;;;;;;;6209777;23;20171;-91
2022/06/02 05:39:15;;;;;;;8.27;5.15;;;;;;;;;;6213149;23;20171;-90
2022/06/02 05:42:26;;;;;;;9.10;5.68;;;;;;;;;;6212365;23;20167;-91
2022/06/02 05:45:44;;;;;;;19.02;10.82;;;;;;;;;;6214676;23;20190;-90
2022/06/02 05:48:57;;;;;;;11.88;5.07;;;;;;;;;;6211759;23;20279;-90
2022/06/02 05:52:07;;;;;;;9.75;4.97;;;;;;;;;;6212625;23;20210;-89
2022/06/02 05:55:33;;;;;;;7.68;5.40;;;;;;;;;;6211852;23;20595;-91
2022/06/02 05:58:56;;;;;;;9.50;5.70;;;;;;;;;;6211697;23;20171;-92
2022/06/02 06:02:11;;;;;;;10.50;4.80;;;;;;;;;;6210657;23;20248;-92
2022/06/02 06:05:25;;;;;;;9.57;5.22;;;;;;;;;;6215021;23;20250;-92
2022/06/02 06:08:47;;;;;;;8.52;5.85;;;;;;;;;;6214832;23;20183;-92
2022/06/02 06:11:59;;;;;;;7.43;5.07;;;;;;;;;;6215542;23;20211;-90
2022/06/02 06:15:11;;;;;;;8.43;4.65;;;;;;;;;;6212445;23;20230;-91
2022/06/02 06:18:22;;;;;;;8.65;5.45;;;;;;;;;;6212518;23;20239;-91
2022/06/02 06:21:33;;;;;;;10.10;5.97;;;;;;;;;;6213097;23;20167;-90
2022/06/02 06:24:52;;;;;;;9.48;5.57;;;;;;;;;;6213779;23;20504;-91
2022/06/02 06:28:07;;;;;;;11.00;5.22;;;;;;;;;;6211726;23;20275;-91
2022/06/02 06:31:19;;;;;;;6.45;4.65;;;;;;;;;;6214003;23;20159;-91
2022/06/02 06:34:31;;;;;;;11.57;4.95;;;;;;;;;;6214480;23;20171;-91
2022/06/02 06:37:42;;;;;;;10.25;4.78;;;;;;;;;;6218743;23;20249;-90
2022/06/02 06:41:06;;;;;;;8.90;4.55;;;;;;;;;;6216853;23;20164;-90
2022/06/02 06:44:18;;;;;;;6.70;3.67;;;;;;;;;;6211978;23;20155;-92
2022/06/02 06:47:24;;;;;;;6.80;3.50;;;;;;;;;;6216005;23;20497;-92
2022/06/02 06:50:34;;;;;;;7.03;3.47;;;;;;;;;;6213147;23;20250;-91
2022/06/02 06:53:48;;;;;;;7.90;3.45;;;;;;;;;;6212016;23;20171;-93
2022/06/02 06:56:58;;;;;;;6.30;3.35;;;;;;;;;;6212067;23;20267;-91
2022/06/02 07:00:10;;;;;;;5.45;3.72;;;;;;;;;;6212677;23;20662;-91
2022/06/02 07:03:18;;;;;;;5.93;3.55;;;;;;;;;;6214787;23;20155;-93
2022/06/02 07:06:29;;;;;;;5.57;3.55;;;;;;;;;;6216097;23;20160;-93
2022/06/02 07:13:04;;;;;;;8.35;3.25;;;;;;;;;;6214248;23;20163;-92
2022/06/02 07:16:14;;;;;;;5.60;3.22;;;;;;;;;;6213533;23;20195;-92
2022/06/02 07:19:42;;;;;;;4.55;3.15;;;;;;;;;;6213910;23;20244;-92
2022/06/02 07:22:51;;;;;;;5.20;3.10;;;;;;;;;;6212969;23;20154;-91
2022/06/02 07:26:01;;;;;;;5.43;3.20;;;;;;;;;;6215212;23;20167;-92
2022/06/02 07:29:15;;;;;;;7.25;3.20;;;;;;;;;;6197269;23;20271;-91
2022/06/02 07:32:33;;;;;;;11.43;3.08;;;;;;;;;;6218853;23;20150;-92
2022/06/02 07:35:57;;;;;;;7.20;3.33;;;;;;;;;;6214341;23;20167;-92
